Terminal Aerodrome Forecast
Issued by NWS Sioux Falls, SD

Home | Current Version | Previous Version | Graphics & Text | Print | Product List | Glossary On
Versions: 1 2 3 4 5 6 7 8 9 10 11 12 13 14 15 16
000
FTUS43 KFSD 030540
TAFFSD
TAF
KFSD 030540Z 0306/0406 18012G19KT P6SM SCT100 BKN200
     FM030800 18009KT P6SM SCT030 BKN100
      TEMPO 0308/0310 5SM TSRA OVC035CB
     FM031200 21006KT P6SM SCT025 BKN040
     FM032000 36006KT P6SM SCT040 SCT200=

USA.gov is the U.S. government's official web portal to all federal, state and local government web resources and services.